Terminal Aerodrome Forecast
Issued by NWS Charleston, WV

Current Version | Previous Version | Graphics & Text | Print | Product List | Glossary On
Versions: 1 2 3 4 5 6 7 8 9 10 11 12 13 14 15 16 17 18 19 20 21 22 23 24
000
FTUS41 KRLX 171500 AAA
TAFPKB
TAF AMD
KPKB 171516Z 1715/1812 22009G16KT P6SM SCT030
     FM171600 23012G24KT P6SM SCT060
     FM180100 24009KT P6SM BKN035
     FM180600 27007KT P6SM OVC025=

USA.gov is the U.S. government's official web portal to all federal, state and local government web resources and services.